| time (UTC) | temp F | wind direction | speed knots | gust knots | rain 1hr in | rain 24hr in | rain mn in | humidity % | barometer mb |
| 20260510142007 | 70 | 236 | 0.9 | 2.6 | 0.00 | 0.00 | 0.00 | 88 | 1017.3 |
| 20260510140007 | 69 | 246 | 0.0 | 2.6 | 0.00 | 0.00 | 0.00 | 88 | 1017.2 |
| 20260510135007 | 69 | 246 | 0.9 | 1.7 | 0.00 | 0.00 | 0.00 | 90 | 1017.1 |
| 20260510134007 | 68 | 244 | 1.7 | 1.7 | 0.00 | 0.00 | 0.00 | 92 | 1017.0 |
| 20260510133006 | 67 | 244 | 0.0 | 1.7 | 0.00 | 0.00 | 0.00 | 94 | 1017.2 |
| 20260510132007 | 66 | 244 | 0.0 | 0.9 | 0.00 | 0.00 | 0.00 | 95 | 1017.1 |
| 20260510130007 | 64 | 244 | 0.0 | 2.6 | 0.00 | 0.00 | 0.00 | 97 | 1017.0 |
| 20260510124007 | 63 | 227 | 0.9 | 2.6 | 0.00 | 0.00 | 0.00 | 97 | 1016.9 |
| 20260510123007 | 62 | 180 | 0.0 | 0.0 | 0.00 | 0.00 | 0.00 | 98 | 1016.9 |
| 20260510110007 | 58 | 163 | 0.0 | 0.0 | 0.00 | 0.00 | 0.00 | 97 | 1015.4 |
| 20260510105007 | 58 | 163 | 0.0 | 0.0 | 0.00 | 0.00 | 0.00 | 97 | 1015.3 |
| 20260510104007 | 58 | 163 | 0.0 | 0.0 | 0.00 | 0.00 | 0.00 | 97 | 1015.4 |
| 20260510100007 | 59 | 163 | 0.0 | 0.0 | 0.00 | 0.00 | 0.00 | 97 | 1014.9 |
| 20260510094007 | 59 | 163 | 0.0 | 0.0 | 0.00 | 0.00 | 0.00 | 97 | 1014.6 |
| 20260510091007 | 60 | 163 | 0.0 | 0.0 | 0.00 | 0.00 | 0.00 | 97 | 1014.5 |
| 20260510090007 | 60 | 163 | 0.0 | 0.0 | 0.00 | 0.00 | 0.00 | 97 | 1014.4 |
| 20260510084007 | 60 | 163 | 0.0 | 0.0 | 0.00 | 0.00 | 0.00 | 96 | 1014.5 |
| 20260510083007 | 61 | 163 | 0.0 | 0.0 | 0.00 | 0.00 | 0.00 | 97 | 1014.4 |
| 20260510081007 | 61 | 163 | 0.0 | 0.0 | 0.00 | 0.00 | 0.00 | 96 | 1014.4 |
| 20260510075006 | 61 | 163 | 0.0 | 0.0 | 0.00 | 0.00 | 0.00 | 96 | 1014.3 |
| 20260510074007 | 61 | 163 | 0.0 | 0.9 | 0.00 | 0.00 | 0.00 | 96 | 1014.3 |
| 20260510073007 | 62 | 163 | 0.0 | 0.0 | 0.00 | 0.00 | 0.00 | 96 | 1014.2 |
| 20260510070007 | 62 | 163 | 0.0 | 0.9 | 0.00 | 0.00 | 0.00 | 96 | 1013.9 |
| 20260510065007 | 62 | 163 | 0.0 | 0.0 | 0.00 | 0.00 | 0.00 | 96 | 1013.9 |
| 20260510061006 | 63 | 163 | 0.0 | 0.9 | 0.00 | 0.00 | 0.00 | 95 | 1014.1 |
| 20260510054007 | 64 | 163 | 0.0 | 0.9 | 0.00 | 0.00 | 0.00 | 94 | 1014.1 |
| 20260510051007 | 64 | 225 | 0.0 | 0.9 | 0.00 | 0.00 | 0.00 | 93 | 1014.1 |
| 20260510045007 | 65 | 146 | 0.0 | 1.7 | 0.00 | 0.00 | 0.00 | 92 | 1014.0 |
| 20260510044007 | 65 | 186 | 0.0 | 1.7 | 0.00 | 0.00 | 0.00 | 92 | 1013.9 |
| 20260510035007 | 65 | 146 | 0.9 | 0.9 | 0.00 | 0.00 | 0.00 | 91 | 1014.2 |
| 20260510030007 | 65 | 250 | 0.0 | 0.9 | 0.00 | 0.00 | 0.00 | 89 | 1014.0 |
| 20260510025007 | 65 | 250 | 0.0 | 0.9 | 0.00 | 0.00 | 0.00 | 87 | 1013.9 |
| 20260510021007 | 66 | 207 | 0.0 | 0.9 | 0.00 | 0.00 | 0.00 | 85 | 1013.2 |
| 20260510015007 | 67 | 207 | 0.0 | 0.0 | 0.00 | 0.00 | 0.00 | 82 | 1012.7 |
| 20260510010007 | 71 | 207 | 0.0 | 0.0 | 0.00 | 0.00 | 0.00 | 74 | 1011.8 |
| 20260510003007 | 74 | 207 | 0.0 | 0.0 | 0.00 | 0.00 | 0.00 | 69 | 1011.3 |
| 20260510002007 | 75 | 207 | 0.0 | 1.7 | 0.00 | 0.00 | 0.00 | 67 | 1011.3 |
| 20260509234007 | 78 | 355 | 0.9 | 2.6 | 0.00 | 0.00 | 0.00 | 47 | 1011.1 |
| 20260509233007 | 79 | 25 | 2.6 | 4.3 | 0.00 | 0.00 | 0.00 | 43 | 1011.2 |
| 20260509232007 | 79 | 323 | 1.7 | 4.3 | 0.00 | 0.00 | 0.00 | 42 | 1011.2 |
| 20260509223006 | 81 | 301 | 2.6 | 6.1 | 0.00 | 0.00 | 0.00 | 40 | 1010.8 |
| 20260509222007 | 81 | 278 | 1.7 | 7.0 | 0.00 | 0.00 | 0.00 | 42 | 1010.7 |
| 20260509220007 | 80 | 280 | 1.7 | 2.6 | 0.00 | 0.00 | 0.00 | 42 | 1010.8 |
| 20260509214007 | 82 | 278 | 3.5 | 7.0 | 0.00 | 0.00 | 0.00 | 41 | 1010.8 |
| 20260509213007 | 83 | 315 | 2.6 | 8.7 | 0.00 | 0.00 | 0.00 | 40 | 1010.8 |
| 20260509210007 | 82 | 267 | 1.7 | 7.0 | 0.00 | 0.00 | 0.00 | 44 | 1011.0 |
| 20260509202007 | 80 | 243 | 2.6 | 5.2 | 0.00 | 0.00 | 0.00 | 45 | 1011.2 |
| 20260509195007 | 82 | 289 | 1.7 | 6.1 | 0.00 | 0.00 | 0.00 | 46 | 1011.3 |
| 20260509191006 | 79 | 246 | 0.9 | 1.7 | 0.00 | 0.00 | 0.00 | 53 | 1011.5 |
| 20260509184007 | 80 | 259 | 1.7 | 2.6 | 0.00 | 0.00 | 0.00 | 50 | 1011.8 |
| 20260509175006 | 77 | 222 | 1.7 | 5.2 | 0.00 | 0.00 | 0.00 | 57 | 1012.1 |
| 20260509162007 | 74 | 157 | 1.7 | 4.3 | 0.00 | 0.00 | 0.00 | 67 | 1012.5 |
| 20260509161007 | 74 | 236 | 2.6 | 6.1 | 0.00 | 0.00 | 0.00 | 69 | 1012.4 |
| 20260509150007 | 68 | 269 | 2.6 | 7.0 | 0.00 | 0.00 | 0.00 | 82 | 1011.9 |
| 20260509145007 | 67 | 216 | 0.9 | 2.6 | 0.00 | 0.00 | 0.00 | 86 | 1012.1 |
| 20260509143006 | 65 | 228 | 0.0 | 2.6 | 0.00 | 0.00 | 0.00 | 87 | 1012.3 |